Time;durP1;ratioP1;P1;durP2;ratioP2;P2;SDS_P1;SDS_P2;PMS_P1;PMS_P2;Temp;Humidity;BMP_temperature;BMP_pressure;BME280_temperature;BME280_humidity;BME280_pressure;Samples;Min_cycle;Max_cycle;Signal;HPM_P1;HPM_P2
2023/06/20 00:01:13;;;;;;;5.80;4.80;;;20.00;99.90;;;19.45;100.00;100325.88;4167247;28;20086;-76
2023/06/20 00:03:17;;;;;;;7.90;5.70;;;20.00;99.90;;;19.39;100.00;100309.88;4167425;28;20029;-76
2023/06/20 00:05:18;;;;;;;7.45;5.20;;;19.90;99.90;;;19.39;100.00;100318.75;4161404;28;20152;-76
2023/06/20 00:07:19;;;;;;;6.25;4.78;;;19.90;99.90;;;19.37;100.00;100331.50;4173006;28;20148;-76
2023/06/20 00:09:20;;;;;;;5.80;4.55;;;19.80;99.90;;;19.35;100.00;100355.00;4173336;28;20022;-76
2023/06/20 00:11:21;;;;;;;7.05;5.60;;;19.80;99.90;;;19.31;100.00;100354.59;4190609;28;20037;-76
2023/06/20 00:13:22;;;;;;;7.78;5.03;;;19.80;99.90;;;19.27;100.00;100344.56;4190684;28;20025;-76
2023/06/20 00:15:25;;;;;;;7.30;4.85;;;19.70;99.90;;;19.18;100.00;100335.19;4190591;28;20063;-76
2023/06/20 00:17:26;;;;;;;6.70;5.00;;;19.70;99.90;;;19.26;100.00;100343.75;4190279;28;20025;-76
2023/06/20 00:19:27;;;;;;;7.53;4.82;;;19.70;99.90;;;19.21;100.00;100332.06;4172448;28;20136;-76
2023/06/20 00:21:28;;;;;;;5.45;4.55;;;19.70;99.90;;;19.19;100.00;100340.34;4172894;28;20516;-76
2023/06/20 00:23:29;;;;;;;6.35;4.70;;;19.60;99.90;;;19.13;100.00;100340.41;4172554;28;20029;-76
2023/06/20 00:25:30;;;;;;;7.05;5.72;;;19.60;99.90;;;19.09;100.00;100345.38;4190469;28;20029;-76
2023/06/20 00:27:31;;;;;;;7.07;5.03;;;19.50;99.90;;;19.06;100.00;100353.81;4189161;28;20028;-75
2023/06/20 00:29:32;;;;;;;7.93;4.90;;;19.50;99.90;;;18.96;100.00;100331.31;4190606;28;20021;-76
2023/06/20 00:31:33;;;;;;;6.13;4.55;;;19.50;99.90;;;19.00;100.00;100340.50;4188847;28;20029;-76
2023/06/20 00:33:36;;;;;;;8.15;5.20;;;19.50;99.90;;;19.01;100.00;100339.50;4172809;28;20018;-76
2023/06/20 00:35:37;;;;;;;5.72;4.90;;;19.50;99.90;;;18.99;100.00;100329.03;4190625;28;20032;-76
2023/06/20 00:37:38;;;;;;;9.57;5.35;;;19.50;99.90;;;18.98;100.00;100334.59;4190376;28;20388;-76
2023/06/20 00:39:39;;;;;;;6.47;5.15;;;19.50;99.90;;;19.06;100.00;100331.63;4190335;28;20443;-76
2023/06/20 00:41:40;;;;;;;7.00;5.70;;;19.50;99.90;;;19.05;100.00;100321.97;4172753;28;20033;-76
2023/06/20 00:43:41;;;;;;;8.25;5.28;;;19.50;99.90;;;19.07;100.00;100314.56;4172834;28;20107;-76
2023/06/20 00:45:42;;;;;;;7.25;5.50;;;19.50;99.90;;;19.03;100.00;100308.00;4172593;28;20040;-76
2023/06/20 00:47:42;;;;;;;7.88;5.20;;;19.50;99.90;;;19.04;100.00;100317.66;4172270;28;20472;-76
2023/06/20 00:49:50;;;;;;;9.20;5.45;;;19.50;99.90;;;19.12;100.00;100325.38;4156112;28;20030;-76
2023/06/20 00:51:51;;;;;;;7.00;5.35;;;19.50;99.90;;;19.03;100.00;100308.00;4190302;28;20025;-76
2023/06/20 00:53:52;;;;;;;6.22;5.13;;;19.60;99.90;;;19.10;100.00;100317.59;4172566;28;20026;-76
2023/06/20 00:55:54;;;;;;;9.10;5.38;;;19.50;99.90;;;19.03;100.00;100308.81;4172459;28;20520;-76
2023/06/20 00:58:00;;;;;;;7.18;5.28;;;19.50;99.90;;;19.12;100.00;100323.53;4190443;28;20029;-76
2023/06/20 01:00:01;;;;;;;7.20;5.85;;;19.50;99.90;;;19.10;100.00;100316.78;4190264;28;20033;-76
2023/06/20 01:02:03;;;;;;;6.45;5.40;;;19.60;99.90;;;19.10;100.00;100322.13;4190062;28;20108;-76
2023/06/20 01:04:04;;;;;;;8.10;5.80;;;19.50;99.90;;;19.09;100.00;100320.47;4190004;28;20037;-76
2023/06/20 01:06:20;;;;;;;6.93;5.38;;;19.50;99.90;;;19.02;100.00;100309.06;4189184;28;20028;-76
2023/06/20 01:08:39;;;;;;;10.18;5.18;;;19.50;99.90;;;19.08;100.00;100316.19;4156383;28;20025;-76
2023/06/20 01:11:15;;;;;;;7.72;5.65;;;19.50;99.90;;;19.05;100.00;100314.78;4173483;28;20033;-76
2023/06/20 01:13:34;;;;;;;5.75;4.93;;;19.50;99.90;;;19.03;100.00;100306.16;4190180;28;20024;-76
2023/06/20 01:15:50;;;;;;;7.63;5.30;;;19.50;99.90;;;19.01;100.00;100304.75;4190028;28;20438;-76
2023/06/20 01:18:17;;;;;;;5.70;4.85;;;19.50;99.90;;;18.96;100.00;100302.75;4187569;28;20029;-76
2023/06/20 01:20:27;;;;;;;6.18;4.65;;;19.50;99.90;;;18.95;100.00;100311.78;4171741;28;20104;-76
2023/06/20 01:22:46;;;;;;;8.30;5.10;;;19.40;99.90;;;18.94;100.00;100322.69;4170071;28;20033;-76
2023/06/20 01:24:58;;;;;;;8.35;5.75;;;19.40;99.90;;;18.90;100.00;100327.69;4187353;28;20079;-76
2023/06/20 01:27:22;;;;;;;7.07;5.30;;;19.40;99.90;;;18.90;100.00;100327.69;4169987;28;20030;-76
2023/06/20 01:29:46;;;;;;;9.75;6.05;;;19.40;99.90;;;18.88;100.00;100324.38;4171224;28;20033;-76
2023/06/20 01:31:55;;;;;;;7.65;5.78;;;19.40;99.90;;;18.91;100.00;100325.81;4170018;28;20060;-76
2023/06/20 01:34:16;;;;;;;7.88;5.38;;;19.40;99.90;;;18.85;100.00;100311.47;4153336;28;20033;-76
2023/06/20 01:36:20;;;;;;;7.78;5.63;;;19.40;99.90;;;18.88;100.00;100321.72;4169674;28;20052;-75
2023/06/20 01:38:22;;;;;;;;;;;19.30;99.90;;;18.76;100.00;100302.09;4169960;28;20598;-76
2023/06/20 01:40:26;;;;;;;7.88;5.47;;;19.30;99.90;;;18.82;100.00;100311.13;4169460;28;19928;-76
2023/06/20 01:42:27;;;;;;;;;;;19.30;99.90;;;18.70;100.00;100314.47;4170027;28;20091;-76
2023/06/20 01:44:30;;;;;;;11.55;6.47;;;19.30;99.90;;;18.69;100.00;100312.03;4187179;28;19909;-75
2023/06/20 01:46:33;;;;;;;9.20;5.63;;;19.30;99.90;;;18.65;100.00;100308.97;4169187;28;20143;-76
2023/06/20 01:48:36;;;;;;;10.07;5.22;;;19.20;99.90;;;18.67;100.00;100317.59;4187055;28;20029;-76
2023/06/20 01:50:38;;;;;;;9.00;6.10;;;19.20;99.90;;;18.73;100.00;100327.41;4169698;28;20036;-76
2023/06/20 01:52:40;;;;;;;7.57;5.88;;;19.20;99.90;;;18.74;100.00;100321.03;4186926;28;20029;-76
2023/06/20 01:54:46;;;;;;;8.75;5.75;;;19.20;99.90;;;18.72;100.00;100311.59;4169385;28;20029;-76
2023/06/20 01:56:47;;;;;;;8.88;6.28;;;19.20;99.90;;;18.74;100.00;100321.03;4186981;28;20017;-76
2023/06/20 01:58:49;;;;;;;6.75;5.45;;;19.20;99.90;;;18.71;100.00;100321.47;4169343;28;20370;-76
2023/06/20 02:00:51;;;;;;;8.98;5.78;;;19.20;99.90;;;18.65;100.00;100311.66;4169006;28;20021;-76
2023/06/20 02:02:55;;;;;;;9.18;6.18;;;19.20;99.90;;;18.62;100.00;100308.59;4169012;28;20024;-76
2023/06/20 02:04:58;;;;;;;8.70;6.38;;;19.20;99.90;;;18.63;100.00;100313.75;4185846;28;20484;-76
2023/06/20 02:07:02;;;;;;;8.40;6.20;;;19.20;99.90;;;18.67;100.00;100314.91;4185432;28;20462;-76
2023/06/20 02:09:04;;;;;;;7.65;5.80;;;19.20;99.90;;;18.65;100.00;100326.88;4169102;28;20116;-76
2023/06/20 02:11:07;;;;;;;8.18;6.38;;;19.10;99.90;;;18.59;100.00;100309.84;4169207;28;20033;-76
2023/06/20 02:13:09;;;;;;;6.55;5.15;;;19.10;99.90;;;18.64;100.00;100315.34;4168896;28;20029;-76
2023/06/20 02:15:12;;;;;;;7.75;5.78;;;19.10;99.90;;;18.65;100.00;100311.66;4168968;28;20033;-76
2023/06/20 02:17:15;;;;;;;9.50;6.05;;;19.10;99.90;;;18.66;100.00;100326.66;4152165;28;20120;-76
2023/06/20 02:19:16;;;;;;;8.55;6.00;;;19.10;99.90;;;18.62;100.00;100328.13;4186448;28;20051;-76
2023/06/20 02:21:32;;;;;;;6.90;5.55;;;19.10;99.90;;;18.64;100.00;100327.88;4168991;28;20029;-76
2023/06/20 02:23:36;;;;;;;8.88;5.95;;;19.10;99.90;;;18.62;100.00;100332.66;4168935;28;20060;-76
2023/06/20 02:25:44;;;;;;;6.40;4.90;;;19.10;99.90;;;18.63;100.00;100334.28;4169213;28;20029;-76
2023/06/20 02:27:48;;;;;;;9.73;6.60;;;19.10;99.90;;;18.53;100.00;100313.41;4153013;28;20057;-75
2023/06/20 02:29:50;;;;;;;8.73;6.93;;;19.10;99.90;;;18.65;100.00;100333.03;4167672;28;20143;-75
2023/06/20 02:31:53;;;;;;;6.57;5.88;;;19.10;99.90;;;18.65;100.00;100324.19;4152143;28;20030;-76
2023/06/20 02:33:58;;;;;;;8.75;6.10;;;19.10;99.90;;;18.68;100.00;100329.94;4168815;28;20030;-76
2023/06/20 02:36:03;;;;;;;7.00;5.63;;;19.10;99.90;;;18.61;100.00;100320.31;4186243;28;20032;-77
2023/06/20 02:38:06;;;;;;;7.85;6.13;;;19.10;99.90;;;18.65;100.00;100322.34;4152664;28;20041;-76
2023/06/20 02:40:09;;;;;;;7.65;5.43;;;19.10;99.90;;;18.65;100.00;100322.34;4168741;28;20034;-76
2023/06/20 02:42:10;;;;;;;6.55;5.85;;;19.10;99.90;;;18.67;100.00;100328.28;4186253;28;20033;-76
2023/06/20 02:44:11;;;;;;;6.90;5.75;;;19.10;99.90;;;18.66;100.00;100329.34;4168569;28;20090;-76
2023/06/20 02:46:47;;;;;;;7.25;5.85;;;19.10;99.90;;;18.65;100.00;100327.69;4185871;28;20496;-76
2023/06/20 02:49:03;;;;;;;7.35;5.70;;;19.10;99.90;;;18.64;100.00;100328.72;4154067;28;20053;-76
2023/06/20 02:51:23;;;;;;;7.55;5.45;;;19.10;99.90;;;18.64;100.00;100335.91;4168661;28;20029;-75
2023/06/20 02:54:09;;;;;;;7.55;5.65;;;19.10;99.90;;;18.59;100.00;100333.06;4170155;28;20099;-76
2023/06/20 02:56:14;;;;;;;6.30;5.20;;;19.10;99.90;;;18.57;100.00;100325.28;4141083;28;20057;-76
2023/06/20 02:58:18;;;;;;;6.45;5.47;;;19.10;99.90;;;18.62;100.00;100327.31;4152345;28;20030;-76
2023/06/20 03:00:19;;;;;;;;;;;19.10;99.90;;;18.54;100.00;100324.91;4168698;28;20087;-75
2023/06/20 03:02:22;;;;;;;8.02;5.30;;;19.10;99.90;;;18.61;100.00;100326.47;4168188;28;19909;-76
2023/06/20 03:04:28;;;;;;;8.80;5.60;;;19.10;99.90;;;18.63;100.00;100331.63;4185755;28;20112;-76
2023/06/20 03:06:30;;;;;;;8.40;6.18;;;19.10;99.90;;;18.62;100.00;100330.78;4168312;28;20627;-76
2023/06/20 03:08:33;;;;;;;7.90;6.05;;;19.10;99.90;;;18.64;100.00;100319.88;4168338;28;20113;-76
2023/06/20 03:10:35;;;;;;;7.97;5.43;;;19.10;99.90;;;18.63;100.00;100335.13;4168075;28;20444;-76
2023/06/20 03:12:38;;;;;;;8.82;6.32;;;19.10;99.90;;;18.61;100.00;100334.50;4151585;28;20041;-76
2023/06/20 03:14:40;;;;;;;6.60;5.47;;;19.10;99.90;;;18.57;100.00;100335.97;4167996;28;20026;-76
2023/06/20 03:16:44;;;;;;;7.93;5.82;;;19.10;99.90;;;18.61;100.00;100345.19;4185693;28;20041;-76
2023/06/20 03:18:46;;;;;;;9.95;6.95;;;19.10;99.90;;;18.46;100.00;100328.63;4168064;28;20562;-76
2023/06/20 03:20:48;;;;;;;8.25;6.80;;;19.10;99.90;;;18.61;100.00;100353.19;4169235;28;20401;-76
2023/06/20 03:22:49;;;;;;;9.57;6.50;;;19.10;99.90;;;18.57;100.00;100346.66;4167785;28;20025;-76
2023/06/20 03:24:50;;;;;;;9.85;6.68;;;19.10;99.90;;;18.55;100.00;100345.22;4169026;28;20025;-76
2023/06/20 03:26:50;;;;;;;9.50;6.50;;;19.10;99.90;;;18.55;100.00;100350.56;4167960;28;20029;-76
2023/06/20 03:28:51;;;;;;;8.15;6.85;;;19.00;99.90;;;18.53;100.00;100347.31;4167937;28;20658;-76
2023/06/20 03:30:52;;;;;;;8.90;7.00;;;19.00;99.90;;;18.51;100.00;100334.19;4168795;28;20029;-76
2023/06/20 03:32:53;;;;;;;9.80;6.25;;;19.00;99.90;;;18.53;100.00;100336.63;4168995;28;20080;-76
2023/06/20 03:34:54;;;;;;;8.15;5.68;;;19.00;99.90;;;18.53;100.00;100340.13;4151302;28;20026;-76
2023/06/20 03:36:55;;;;;;;12.95;6.82;;;19.00;99.90;;;18.55;100.00;100342.56;4169082;28;20079;-76
2023/06/20 03:38:56;;;;;;;8.82;7.25;;;19.00;99.90;;;18.40;100.00;100324.16;4167635;28;20022;-76
2023/06/20 03:40:58;;;;;;;11.07;7.00;;;19.00;99.90;;;18.52;100.00;100338.47;4168565;28;20055;-76
2023/06/20 03:42:59;;;;;;;8.77;6.93;;;19.00;99.90;;;18.53;100.00;100347.31;4167584;28;20048;-76
2023/06/20 03:45:00;;;;;;;10.43;7.32;;;19.00;99.90;;;18.47;100.00;100338.28;4168868;28;20038;-76
2023/06/20 03:47:01;;;;;;;8.23;7.00;;;19.00;99.90;;;18.51;100.00;100338.69;4168658;28;20026;-76
2023/06/20 03:49:02;;;;;;;10.77;7.00;;;19.00;99.90;;;18.50;100.00;100345.88;4168788;28;20022;-76
2023/06/20 03:51:03;;;;;;;10.98;7.25;;;19.00;99.90;;;18.50;100.00;100340.53;4184154;28;20538;-76
2023/06/20 03:53:03;;;;;;;7.82;6.50;;;19.00;99.90;;;18.49;100.00;100341.56;4151187;28;20192;-76
2023/06/20 03:55:06;;;;;;;8.95;7.05;;;19.00;99.90;;;18.46;100.00;100331.28;4184188;28;20029;-76
2023/06/20 03:57:07;;;;;;;8.80;7.13;;;19.00;99.90;;;18.46;100.00;100335.81;4167554;28;20029;-76
2023/06/20 03:59:07;;;;;;;10.50;7.32;;;19.00;99.90;;;18.51;100.00;100336.84;4151384;28;20137;-76
2023/06/20 04:01:08;;;;;;;8.20;6.85;;;19.00;99.90;;;18.45;100.00;100327.00;4168181;28;20497;-76
2023/06/20 04:03:09;;;;;;;10.40;7.22;;;19.00;99.90;;;18.45;100.00;100331.53;4168674;28;20025;-76
2023/06/20 04:05:10;;;;;;;9.05;7.47;;;19.00;99.90;;;18.52;100.00;100340.31;4168496;28;20087;-76
2023/06/20 04:07:11;;;;;;;9.18;7.28;;;19.00;99.90;;;18.42;100.00;100326.63;4168556;28;20032;-76
2023/06/20 04:09:12;;;;;;;9.30;7.57;;;19.00;99.90;;;18.47;100.00;100335.59;4167489;28;20065;-76
2023/06/20 04:11:13;;;;;;;10.15;7.80;;;19.00;99.90;;;18.49;100.00;100338.91;4167502;28;20495;-76
2023/06/20 04:13:14;;;;;;;12.75;8.95;;;19.00;99.90;;;18.47;100.00;100338.28;4168569;28;20030;-76
2023/06/20 04:15:15;;;;;;;13.50;8.20;;;19.00;99.90;;;18.51;100.00;100344.88;4167553;28;20028;-76
2023/06/20 04:17:15;;;;;;;11.52;8.63;;;19.00;99.90;;;18.48;100.00;100339.94;4168209;28;20424;-76
2023/06/20 04:19:17;;;;;;;9.68;8.32;;;19.00;99.90;;;18.48;100.00;100334.59;4167203;28;20073;-76
2023/06/20 04:21:17;;;;;;;10.48;7.78;;;19.00;99.90;;;18.51;100.00;100346.72;4168517;28;20152;-76
2023/06/20 04:23:18;;;;;;;10.45;8.02;;;19.00;99.90;;;18.51;100.00;100346.72;4168324;28;20500;-76
2023/06/20 04:25:19;;;;;;;11.48;7.93;;;19.00;99.90;;;18.50;100.00;100351.22;4183741;28;20073;-76
2023/06/20 04:27:20;;;;;;;10.82;8.57;;;19.00;99.90;;;18.54;100.00;100357.78;4151160;28;20108;-76
2023/06/20 04:29:21;;;;;;;10.50;8.18;;;19.00;99.90;;;18.44;100.00;100341.38;4168564;28;20429;-76
2023/06/20 04:31:22;;;;;;;12.32;8.52;;;19.00;99.90;;;18.54;100.00;100357.78;4167321;28;20045;-76
2023/06/20 04:33:23;;;;;;;9.25;7.65;;;19.00;99.90;;;18.53;100.00;100356.13;4168258;28;20081;-76
2023/06/20 04:35:24;;;;;;;14.18;9.40;;;19.00;99.90;;;18.49;100.00;100349.59;4167186;28;20032;-76
2023/06/20 04:37:25;;;;;;;10.85;7.88;;;19.00;99.90;;;18.52;100.00;100354.50;4167271;28;20501;-76
2023/06/20 04:39:26;;;;;;;11.85;8.85;;;19.00;99.90;;;18.55;100.00;100359.41;4167171;28;20034;-76
2023/06/20 04:41:27;;;;;;;13.27;9.18;;;19.00;99.90;;;18.55;100.00;100363.91;4166951;28;20029;-76
2023/06/20 04:43:28;;;;;;;13.85;9.05;;;19.00;99.90;;;18.51;100.00;100360.91;4167241;28;20053;-76
2023/06/20 04:45:29;;;;;;;12.88;8.65;;;19.00;99.90;;;18.46;100.00;100347.31;4167185;28;20033;-76
2023/06/20 04:47:32;;;;;;;11.07;8.43;;;19.00;99.90;;;18.57;100.00;100356.53;4167073;28;20029;-76
2023/06/20 04:49:33;;;;;;;11.57;8.02;;;19.10;99.90;;;18.57;100.00;100354.69;4167210;28;20038;-76
2023/06/20 04:51:34;;;;;;;9.77;8.20;;;19.10;99.90;;;18.57;100.00;100349.34;4168127;28;20026;-76
2023/06/20 04:53:36;;;;;;;12.75;7.82;;;19.10;99.90;;;18.57;100.00;100352.00;4168919;28;20476;-76
2023/06/20 04:55:38;;;;;;;12.60;9.40;;;19.10;99.90;;;18.62;100.00;100356.69;4171614;28;20028;-76
2023/06/20 04:57:39;;;;;;;11.27;8.63;;;19.10;99.90;;;18.63;100.00;100356.50;4170253;28;20435;-76
2023/06/20 04:59:41;;;;;;;14.70;9.52;;;19.10;99.90;;;18.67;100.00;100364.84;4170253;28;20025;-76
2023/06/20 05:01:42;;;;;;;11.57;8.27;;;19.10;99.90;;;18.73;100.00;100378.19;4170167;28;20571;-76
2023/06/20 05:03:43;;;;;;;14.40;8.70;;;19.20;99.90;;;18.67;100.00;100357.66;4171233;28;20033;-76
2023/06/20 05:05:44;;;;;;;9.82;8.73;;;19.20;99.90;;;18.78;100.00;100374.88;4171051;28;20033;-75
2023/06/20 05:07:45;;;;;;;11.60;8.82;;;19.20;99.90;;;18.77;100.00;100376.72;4171345;28;20025;-76
2023/06/20 05:09:46;;;;;;;10.10;7.88;;;19.20;99.90;;;18.75;100.00;100370.78;4170115;28;20065;-76
2023/06/20 05:11:46;;;;;;;9.52;7.88;;;19.20;99.90;;;18.81;100.00;100374.44;4169950;28;20018;-76
2023/06/20 05:13:47;;;;;;;12.02;8.88;;;19.20;99.90;;;18.80;100.00;100364.75;4170976;28;20034;-76
2023/06/20 05:15:48;;;;;;;10.77;8.18;;;19.30;99.90;;;18.84;100.00;100373.16;4169952;28;20065;-76
2023/06/20 05:17:53;;;;;;;10.48;7.97;;;19.30;99.90;;;18.85;100.00;100370.25;4172005;28;20041;-76
2023/06/20 05:19:53;;;;;;;13.95;8.32;;;19.30;99.90;;;18.82;100.00;100375.25;4187555;28;20051;-76
2023/06/20 05:21:54;;;;;;;10.25;7.90;;;19.30;99.90;;;18.75;100.00;100362.75;4153314;28;20026;-76
2023/06/20 05:23:55;;;;;;;13.85;8.95;;;19.30;99.90;;;18.89;100.00;100373.31;4169895;28;20021;-76
2023/06/20 05:25:56;;;;;;;10.23;7.97;;;19.40;99.90;;;18.89;100.00;100382.16;4169777;28;20025;-76
2023/06/20 05:27:57;;;;;;;12.80;8.57;;;19.40;99.90;;;18.89;100.00;100381.34;4169867;28;20032;-76
2023/06/20 05:29:58;;;;;;;9.50;8.02;;;19.40;99.90;;;18.91;100.00;100379.25;4153092;28;20030;-76
2023/06/20 05:31:59;;;;;;;13.02;7.93;;;19.40;99.90;;;19.00;100.00;100385.97;4169439;28;20018;-76
2023/06/20 05:34:00;;;;;;;9.52;7.95;;;19.40;99.90;;;19.03;100.00;100385.53;4187379;28;20025;-76
2023/06/20 05:36:01;;;;;;;10.77;7.60;;;19.50;99.90;;;18.99;100.00;100370.97;4202477;28;20488;-76
2023/06/20 05:38:03;;;;;;;9.88;7.30;;;19.50;99.90;;;19.02;100.00;100382.06;4187253;28;20086;-76
2023/06/20 05:40:06;;;;;;;13.10;8.93;;;19.50;99.90;;;19.02;100.00;100375.88;4187317;28;20442;-76
2023/06/20 05:42:07;;;;;;;11.27;8.13;;;19.50;99.90;;;18.96;100.00;100366.06;4169697;28;20041;-76
2023/06/20 05:44:08;;;;;;;14.05;7.38;;;19.50;99.90;;;18.97;100.00;100386.41;4169435;28;20036;-76
2023/06/20 05:46:10;;;;;;;9.52;8.27;;;19.50;99.90;;;18.96;100.00;100393.63;4186825;28;20033;-76
2023/06/20 05:48:11;;;;;;;10.45;7.90;;;19.50;99.90;;;18.98;100.00;100394.22;4169634;28;20017;-76
2023/06/20 05:50:12;;;;;;;8.93;7.07;;;19.50;99.90;;;19.00;100.00;100394.81;4187220;28;20025;-76
2023/06/20 05:52:14;;;;;;;9.95;7.63;;;19.50;99.90;;;19.00;100.00;100391.31;4169352;28;20029;-76
2023/06/20 05:54:15;;;;;;;9.95;7.70;;;19.50;99.90;;;19.12;100.00;100397.56;4169318;28;20021;-76
2023/06/20 05:56:16;;;;;;;10.32;7.45;;;19.60;99.90;;;19.22;100.00;100405.94;4187041;28;20396;-76
2023/06/20 05:58:18;;;;;;;12.70;7.07;;;19.60;99.90;;;19.30;100.00;100400.28;4187149;28;20088;-76
2023/06/20 06:00:19;;;;;;;9.73;6.50;;;19.70;99.90;;;19.41;100.00;100404.13;4200224;28;20496;-76
2023/06/20 06:02:23;;;;;;;9.88;6.20;;;19.80;99.90;;;19.51;100.00;100407.91;4186651;28;20050;-76
2023/06/20 06:04:25;;;;;;;8.50;6.28;;;19.80;99.90;;;19.62;100.00;100409.84;4201907;28;20035;-76
2023/06/20 06:06:26;;;;;;;10.10;6.10;;;19.90;99.90;;;19.73;100.00;100413.66;4186878;28;20033;-76
2023/06/20 06:08:27;;;;;;;7.10;5.47;;;20.00;99.90;;;19.83;100.00;100414.75;4186676;28;20499;-76
2023/06/20 06:10:28;;;;;;;7.25;4.75;;;20.10;99.90;;;20.00;100.00;100419.50;4186664;28;20033;-76
2023/06/20 06:12:28;;;;;;;7.10;4.65;;;20.20;99.90;;;20.06;100.00;100406.03;4168894;28;20025;-76
2023/06/20 06:14:29;;;;;;;8.32;4.47;;;20.20;99.90;;;20.10;100.00;100414.44;4168837;28;20075;-76
2023/06/20 06:16:30;;;;;;;5.97;4.20;;;20.30;99.90;;;20.27;100.00;100407.44;4186491;28;20036;-76
2023/06/20 06:18:31;;;;;;;5.82;3.88;;;20.40;99.90;;;20.36;100.00;100390.00;4186410;28;20049;-76
2023/06/20 06:20:32;;;;;;;7.00;4.32;;;20.50;99.90;;;20.48;100.00;100393.53;4186458;28;20507;-76
2023/06/20 06:22:33;;;;;;;7.22;3.83;;;20.70;99.90;;;20.55;100.00;100383.50;4168856;28;20029;-76
2023/06/20 06:24:34;;;;;;;6.72;4.20;;;20.70;99.90;;;20.67;100.00;100396.97;4168911;28;20516;-76
2023/06/20 06:26:35;;;;;;;7.60;4.05;;;20.80;99.90;;;20.62;100.00;100381.56;4168665;28;20041;-76
2023/06/20 06:28:36;;;;;;;6.07;3.90;;;20.90;99.90;;;20.70;100.00;100394.63;4186172;28;20017;-76
2023/06/20 06:30:37;;;;;;;6.97;3.97;;;20.90;99.90;;;20.58;100.00;100393.00;4168761;28;20022;-76
2023/06/20 06:32:38;;;;;;;7.47;4.40;;;20.90;99.90;;;20.59;100.00;100400.78;4168599;28;20034;-76
2023/06/20 06:34:41;;;;;;;7.97;4.22;;;20.90;99.90;;;20.56;100.00;100389.69;4168517;28;20024;-76
2023/06/20 06:36:43;;;;;;;5.47;3.75;;;20.90;99.90;;;20.52;100.00;100378.63;4168580;28;20489;-76
2023/06/20 06:38:49;;;;;;;5.30;3.63;;;20.90;99.90;;;20.73;100.00;100402.19;4186308;28;20369;-76
2023/06/20 06:40:54;;;;;;;7.00;3.72;;;21.00;99.90;;;20.74;100.00;100384.25;4168788;28;20040;-76
2023/06/20 06:42:55;;;;;;;6.45;3.40;;;21.10;99.90;;;20.94;100.00;100401.66;4186115;28;20036;-76
2023/06/20 06:44:56;;;;;;;5.68;3.58;;;21.20;99.90;;;21.16;100.00;100407.31;4186385;28;20040;-76
2023/06/20 06:46:56;;;;;;;10.50;4.32;;;21.30;99.90;;;21.20;100.00;100402.28;4186037;28;20025;-76
2023/06/20 06:48:57;;;;;;;7.68;3.13;;;21.40;99.90;;;21.19;100.00;100393.44;4186095;28;20032;-76
2023/06/20 06:50:58;;;;;;;5.45;3.13;;;21.50;99.90;;;21.30;100.00;100408.69;4186128;28;20017;-76
2023/06/20 06:52:59;;;;;;;6.63;3.65;;;21.50;99.90;;;21.39;100.00;100403.78;4186166;28;20424;-76
2023/06/20 06:55:01;;;;;;;4.38;2.70;;;21.60;99.90;;;21.55;100.00;100410.31;4186203;28;20025;-76
2023/06/20 06:57:02;;;;;;;4.00;2.60;;;21.70;99.90;;;21.73;100.00;100415.53;4168548;28;20029;-76
2023/06/20 06:59:03;;;;;;;6.47;3.05;;;21.90;99.90;;;21.88;100.00;100424.75;4184658;28;20031;-76
2023/06/20 07:01:04;;;;;;;6.38;2.50;;;22.00;99.90;;;22.15;100.00;100421.53;4185703;28;20041;-76
2023/06/20 07:03:08;;;;;;;6.07;3.60;;;22.20;99.90;;;22.25;100.00;100410.97;4168397;28;20504;-76
2023/06/20 07:05:09;;;;;;;5.53;3.28;;;22.30;99.90;;;22.37;100.00;100417.91;4185799;28;20055;-76
2023/06/20 07:07:10;;;;;;;5.20;2.78;;;22.40;99.90;;;22.19;100.00;100423.47;4185887;28;20078;-76
2023/06/20 07:09:11;;;;;;;4.63;2.80;;;22.40;99.90;;;22.12;100.00;100438.13;4168079;28;20025;-76
2023/06/20 07:11:12;;;;;;;5.53;2.92;;;22.40;99.90;;;22.05;100.00;100414.06;4185823;28;20017;-76
2023/06/20 07:13:13;;;;;;;4.55;2.95;;;22.30;99.90;;;22.12;100.00;100419.31;4185908;28;20032;-76
2023/06/20 07:15:14;;;;;;;6.35;3.20;;;22.30;99.90;;;22.08;100.00;100420.84;4185170;28;20035;-76
2023/06/20 07:17:15;;;;;;;4.60;2.97;;;22.30;99.90;;;21.85;100.00;100421.69;4185242;28;20031;-76
2023/06/20 07:19:15;;;;;;;7.22;3.40;;;22.20;99.90;;;21.86;100.00;100426.81;4185609;28;20044;-76
2023/06/20 07:21:17;;;;;;;6.72;3.38;;;22.10;99.90;;;21.88;100.00;100432.00;4168146;28;20037;-76
2023/06/20 07:23:17;;;;;;;7.20;2.70;;;22.10;99.90;;;21.86;100.00;100442.13;4167800;28;20028;-76
2023/06/20 07:25:19;;;;;;;4.90;2.95;;;22.00;99.90;;;21.68;100.00;100448.47;4185519;28;20033;-76
2023/06/20 07:27:20;;;;;;;5.68;2.88;;;21.90;99.90;;;21.61;100.00;100444.25;4167973;28;20061;-77
2023/06/20 07:29:20;;;;;;;4.13;2.80;;;21.90;99.90;;;21.45;100.00;100440.41;4185458;28;20033;-76
2023/06/20 07:31:21;;;;;;;5.32;2.85;;;21.80;99.90;;;21.50;100.00;100470.06;4167829;28;20393;-76
2023/06/20 07:33:22;;;;;;;7.25;2.78;;;21.70;99.90;;;21.33;100.00;100461.88;4185378;28;20032;-76
2023/06/20 07:35:23;;;;;;;7.90;3.00;;;21.70;99.90;;;21.21;100.00;100465.59;4167897;28;20026;-76
2023/06/20 07:37:24;;;;;;;9.07;3.38;;;21.60;99.90;;;21.29;100.00;100474.16;4167633;28;20493;-76
2023/06/20 07:39:24;;;;;;;6.45;3.30;;;21.70;99.90;;;21.50;100.00;100468.19;4185416;28;20028;-76
2023/06/20 07:41:25;;;;;;;5.65;2.85;;;21.80;99.90;;;21.79;100.00;100466.44;4185478;28;20029;-76
2023/06/20 07:43:26;;;;;;;5.60;3.30;;;22.00;99.90;;;21.83;100.00;100456.81;4167750;28;20053;-76
2023/06/20 07:45:27;;;;;;;5.15;3.00;;;22.10;99.90;;;21.95;100.00;100446.13;4185264;28;20033;-77
2023/06/20 07:47:28;;;;;;;5.00;2.88;;;22.30;99.90;;;22.18;100.00;100475.59;4184904;28;20025;-76
2023/06/20 07:49:29;;;;;;;5.90;2.70;;;22.40;99.90;;;22.20;100.00;100461.91;4185087;28;20094;-76
2023/06/20 07:51:33;;;;;;;7.68;3.72;;;22.50;99.90;;;22.27;100.00;100460.72;4151207;28;20065;-76
2023/06/20 07:53:34;;;;;;;5.43;3.53;;;22.70;99.90;;;22.31;100.00;100471.81;4167890;28;20036;-76
2023/06/20 07:55:38;;;;;;;6.07;3.10;;;22.70;99.90;;;22.43;100.00;100476.09;4167399;28;20034;-76
2023/06/20 07:57:38;;;;;;;;;;;22.80;99.90;;;22.55;100.00;100476.03;4185438;28;20059;-76
2023/06/20 07:59:39;;;;;;;5.13;3.40;;;23.00;99.90;;;22.46;100.00;100472.91;4184719;28;19909;-77
2023/06/20 08:01:40;;;;;;;5.72;3.00;;;23.00;99.90;;;22.46;100.00;100475.59;4167221;28;20075;-76
2023/06/20 08:03:42;;;;;;;9.68;3.60;;;22.90;99.90;;;22.47;100.00;100462.97;4185031;28;20024;-77
2023/06/20 08:05:43;;;;;;;4.53;2.47;;;22.90;99.90;;;22.40;100.00;100489.22;4185180;28;20040;-76
2023/06/20 08:07:44;;;;;;;5.95;2.88;;;22.80;99.90;;;22.33;100.00;100488.53;4185238;28;20037;-76
2023/06/20 08:09:44;;;;;;;5.25;2.78;;;22.80;99.90;;;22.42;100.00;100487.09;4184543;28;20029;-76
2023/06/20 08:11:45;;;;;;;6.28;2.70;;;22.80;99.90;;;22.47;100.00;100490.69;4185163;28;20025;-76
2023/06/20 08:13:46;;;;;;;7.95;3.00;;;22.90;99.90;;;22.47;100.00;100489.84;4185206;28;20036;-76
2023/06/20 08:15:47;;;;;;;6.63;3.58;;;23.00;99.90;;;22.60;100.00;100494.97;4167152;28;21427;-77
2023/06/20 08:17:48;;;;;;;8.18;2.80;;;23.00;99.90;;;22.65;100.00;100508.53;4167241;28;20021;-76
2023/06/20 08:19:49;;;;;;;5.43;2.67;;;23.10;99.90;;;22.88;100.00;100507.63;4173331;28;20038;-76
2023/06/20 08:21:49;;;;;;;4.72;2.58;;;23.20;99.90;;;23.20;100.00;100492.56;4184846;28;20493;-76
2023/06/20 08:23:50;;;;;;;5.32;2.80;;;23.30;99.90;;;23.56;95.90;100502.03;4184869;28;20029;-77
2023/06/20 08:25:54;;;;;;;6.13;2.70;;;23.60;99.90;;;23.85;95.23;100505.41;4185005;28;20028;-77